createdAt,value
2019-02-20T00:00:51.676Z,96.50
2019-02-20T00:03:21.020Z,96.60
2019-02-20T00:05:50.357Z,96.60
2019-02-20T00:08:19.713Z,96.50
2019-02-20T00:10:49.045Z,96.60
2019-02-20T00:13:18.378Z,96.50
2019-02-20T00:15:47.711Z,96.80
2019-02-20T00:18:17.045Z,96.50
2019-02-20T00:20:46.382Z,96.50
2019-02-20T00:23:15.727Z,96.60
2019-02-20T00:25:45.062Z,96.60
2019-02-20T00:28:14.402Z,96.60
2019-02-20T00:30:43.734Z,96.60
2019-02-20T00:33:13.073Z,96.60
2019-02-20T00:35:42.680Z,96.50
2019-02-20T00:38:12.041Z,96.60
2019-02-20T00:40:41.379Z,96.50
2019-02-20T00:43:10.735Z,96.60
2019-02-20T00:45:57.072Z,96.60
2019-02-20T00:48:34.031Z,96.50
2019-02-20T00:51:13.976Z,96.50
2019-02-20T00:53:50.659Z,96.50
2019-02-20T00:56:19.991Z,96.40
2019-02-20T00:58:49.326Z,96.50
2019-02-20T01:01:18.660Z,96.50
2019-02-20T01:03:48.034Z,96.50
2019-02-20T01:06:17.335Z,96.50
2019-02-20T01:08:46.673Z,96.40
2019-02-20T01:11:16.015Z,96.40
2019-02-20T01:13:45.359Z,96.50
2019-02-20T01:16:14.828Z,96.40
2019-02-20T01:18:44.161Z,96.50
2019-02-20T01:21:13.503Z,96.50
2019-02-20T01:23:42.845Z,96.60
2019-02-20T01:26:12.211Z,96.60
2019-02-20T01:28:41.550Z,96.70
2019-02-20T01:31:10.962Z,96.80
2019-02-20T01:33:40.578Z,96.70
2019-02-20T01:36:09.933Z,96.80
2019-02-20T01:38:39.365Z,96.80
2019-02-20T01:41:08.712Z,96.90
2019-02-20T01:43:38.054Z,96.90
2019-02-20T01:46:07.384Z,96.90
2019-02-20T01:48:36.821Z,96.90
2019-02-20T01:51:06.160Z,97.00
2019-02-20T01:53:35.498Z,97.10
2019-02-20T01:56:04.911Z,97.10
2019-02-20T01:58:34.246Z,97.20
2019-02-20T02:01:03.590Z,97.40
2019-02-20T02:03:32.929Z,97.50
2019-02-20T02:06:02.266Z,97.60
2019-02-20T02:08:31.738Z,97.70
2019-02-20T02:11:01.083Z,97.80
2019-02-20T02:13:30.417Z,97.90
2019-02-20T02:15:59.764Z,98.00
2019-02-20T02:18:29.093Z,98.20
2019-02-20T02:20:58.428Z,98.30
2019-02-20T02:23:27.761Z,98.40
2019-02-20T02:25:57.165Z,98.40
2019-02-20T02:28:26.538Z,98.50
2019-02-20T02:30:55.877Z,98.60
2019-02-20T02:33:25.210Z,98.60
2019-02-20T02:35:54.549Z,98.60
2019-02-20T02:38:23.885Z,98.60
2019-02-20T02:40:53.228Z,98.60
2019-02-20T02:43:22.567Z,99.00
2019-02-20T02:45:51.906Z,98.70
2019-02-20T02:48:21.242Z,98.60
2019-02-20T02:50:50.588Z,98.80
2019-02-20T02:53:30.038Z,98.70
2019-02-20T02:55:50.985Z,98.70
2019-02-20T02:58:20.316Z,98.80
2019-02-20T03:00:49.665Z,98.70
2019-02-20T03:03:18.999Z,98.80
2019-02-20T03:05:48.337Z,98.70
2019-02-20T03:08:17.677Z,98.70
2019-02-20T03:10:47.019Z,98.70
2019-02-20T03:13:16.358Z,98.70
2019-02-20T03:15:45.696Z,98.70
2019-02-20T03:18:15.029Z,98.70
2019-02-20T03:20:44.372Z,98.60
2019-02-20T03:23:13.722Z,98.50
2019-02-20T03:25:43.045Z,98.60
2019-02-20T03:28:12.392Z,98.60
2019-02-20T03:30:41.750Z,98.60
2019-02-20T03:33:11.788Z,98.60
2019-02-20T03:35:41.113Z,98.60
2019-02-20T03:38:10.466Z,98.60
2019-02-20T03:40:39.812Z,98.50
2019-02-20T03:43:09.159Z,98.60
2019-02-20T03:45:38.499Z,98.60
2019-02-20T03:48:07.833Z,98.60
2019-02-20T03:50:37.182Z,98.70
2019-02-20T03:53:06.513Z,98.70
2019-02-20T03:55:35.853Z,99.10
2019-02-20T03:58:05.190Z,98.70
2019-02-20T04:00:34.528Z,98.70
2019-02-20T04:03:03.864Z,98.80
2019-02-20T04:05:33.202Z,98.70
2019-02-20T04:08:02.576Z,98.70
2019-02-20T04:10:31.872Z,98.80
2019-02-20T04:13:01.211Z,98.50
2019-02-20T04:15:30.616Z,98.80
2019-02-20T04:17:59.953Z,98.80
2019-02-20T04:20:29.299Z,98.80
2019-02-20T04:22:58.635Z,98.80
2019-02-20T04:25:27.975Z,98.90
2019-02-20T04:27:57.305Z,98.90
2019-02-20T04:30:26.645Z,99.00
2019-02-20T04:32:55.988Z,99.00
2019-02-20T04:35:25.348Z,99.10
2019-02-20T04:37:54.674Z,99.20
2019-02-20T04:40:24.316Z,99.20
2019-02-20T04:42:53.651Z,99.20
2019-02-20T04:45:22.988Z,99.30
2019-02-20T04:47:52.331Z,99.30
2019-02-20T04:50:21.667Z,99.20
2019-02-20T04:52:51.001Z,99.20
2019-02-20T04:55:20.403Z,99.20
2019-02-20T04:58:06.246Z,99.20
2019-02-20T05:00:35.602Z,99.10
2019-02-20T05:03:04.926Z,99.00
2019-02-20T05:05:34.262Z,98.90
2019-02-20T05:08:03.599Z,99.00
2019-02-20T05:10:32.934Z,98.90
2019-02-20T05:13:02.269Z,98.70
2019-02-20T05:15:31.610Z,98.70
2019-02-20T05:18:00.951Z,98.60
2019-02-20T05:20:30.285Z,98.50
2019-02-20T05:22:59.621Z,98.30
2019-02-20T05:25:28.978Z,98.20
2019-02-20T05:27:58.322Z,98.20
2019-02-20T05:30:27.665Z,98.20
2019-02-20T05:32:57.003Z,98.00
2019-02-20T05:35:26.335Z,98.10
2019-02-20T05:37:55.673Z,98.00
2019-02-20T05:40:25.023Z,97.90
2019-02-20T05:42:54.364Z,97.80
2019-02-20T05:45:23.701Z,97.80
2019-02-20T05:47:53.042Z,97.70
2019-02-20T05:50:22.378Z,97.70
2019-02-20T05:52:51.722Z,97.70
2019-02-20T05:55:21.060Z,97.60
2019-02-20T05:57:50.397Z,97.90
2019-02-20T06:00:19.735Z,97.40
2019-02-20T06:02:49.070Z,97.40
2019-02-20T06:05:18.416Z,97.20
2019-02-20T06:07:47.777Z,97.00
2019-02-20T06:10:17.095Z,96.90
2019-02-20T06:12:46.476Z,96.80
2019-02-20T06:15:15.881Z,96.80
2019-02-20T06:17:45.217Z,96.70
2019-02-20T06:20:14.623Z,96.70
2019-02-20T06:22:43.957Z,96.60
2019-02-20T06:25:13.311Z,96.50
2019-02-20T06:27:42.664Z,96.40
2019-02-20T06:30:13.702Z,96.30
2019-02-20T06:32:43.043Z,96.20
2019-02-20T06:35:12.418Z,96.10
2019-02-20T06:37:41.757Z,96.10
2019-02-20T06:40:11.471Z,95.90
2019-02-20T06:42:40.813Z,95.90
2019-02-20T06:45:11.693Z,95.80
2019-02-20T06:47:41.040Z,95.90
2019-02-20T06:50:10.379Z,95.90
2019-02-20T06:52:39.763Z,96.20
2019-02-20T06:55:12.115Z,96.00
2019-02-20T06:57:41.452Z,95.90
2019-02-20T07:00:13.864Z,95.90
2019-02-20T07:02:43.202Z,96.00
2019-02-20T07:05:37.246Z,96.00
2019-02-20T07:08:47.491Z,96.20
2019-02-20T07:11:38.939Z,96.10
2019-02-20T07:14:29.195Z,96.00
2019-02-20T07:17:27.088Z,96.10
2019-02-20T07:20:41.624Z,96.10
2019-02-20T07:23:42.643Z,96.00
2019-02-20T07:26:49.475Z,96.20
2019-02-20T07:29:40.009Z,96.10
2019-02-20T07:32:09.350Z,96.00
2019-02-20T07:34:38.697Z,95.90
2019-02-20T07:37:09.678Z,95.90
2019-02-20T07:39:39.013Z,95.80
2019-02-20T07:42:08.403Z,96.20
2019-02-20T07:44:37.736Z,95.70
2019-02-20T07:47:07.127Z,95.70
2019-02-20T07:49:37.734Z,95.60
2019-02-20T07:52:07.101Z,95.50
2019-02-20T07:54:36.436Z,95.30
2019-02-20T07:57:05.773Z,95.30
2019-02-20T07:59:35.116Z,95.30
2019-02-20T08:02:04.458Z,95.30
2019-02-20T08:04:33.797Z,95.20
2019-02-20T08:07:03.160Z,95.30
2019-02-20T08:09:32.481Z,95.10
2019-02-20T08:12:01.824Z,95.10
2019-02-20T08:14:31.164Z,95.20
2019-02-20T08:17:01.334Z,95.20
2019-02-20T08:19:30.688Z,95.20
2019-02-20T08:22:00.024Z,94.80
2019-02-20T08:24:29.363Z,94.60
2019-02-20T08:26:58.698Z,94.60
2019-02-20T08:29:29.575Z,94.50
2019-02-20T08:31:58.914Z,94.30
2019-02-20T08:34:28.260Z,94.10
2019-02-20T08:36:57.600Z,93.80
2019-02-20T08:39:26.938Z,93.80
2019-02-20T08:41:56.293Z,93.80
2019-02-20T08:44:25.631Z,93.50
2019-02-20T08:46:55.233Z,93.50
2019-02-20T08:49:24.957Z,93.20
2019-02-20T08:51:54.296Z,93.00
2019-02-20T08:54:23.633Z,92.90
2019-02-20T08:56:53.069Z,92.70
2019-02-20T08:59:22.388Z,92.70
2019-02-20T09:01:51.734Z,92.60
2019-02-20T09:04:21.064Z,92.40
2019-02-20T09:06:50.485Z,92.30
2019-02-20T09:09:19.828Z,92.10
2019-02-20T09:11:49.156Z,92.10
2019-02-20T09:14:18.526Z,92.00
2019-02-20T09:16:48.843Z,92.20
2019-02-20T09:19:18.178Z,92.40
2019-02-20T09:21:47.526Z,92.30
2019-02-20T09:24:16.850Z,92.20
2019-02-20T09:26:46.190Z,92.20
2019-02-20T09:29:15.529Z,92.20
2019-02-20T09:31:44.867Z,92.00
2019-02-20T09:34:14.230Z,91.80
2019-02-20T09:36:43.577Z,91.70
2019-02-20T09:39:30.786Z,91.60
2019-02-20T09:42:00.126Z,91.40
2019-02-20T09:44:33.675Z,91.20
2019-02-20T09:47:03.022Z,91.10
2019-02-20T09:49:32.368Z,91.10
2019-02-20T09:52:01.697Z,90.90
2019-02-20T09:54:31.042Z,90.60
2019-02-20T09:57:00.379Z,90.50
2019-02-20T09:59:29.717Z,90.70
2019-02-20T10:01:59.060Z,90.40
2019-02-20T10:04:28.408Z,90.60
2019-02-20T10:06:57.744Z,90.20
2019-02-20T10:09:27.084Z,90.00
2019-02-20T10:11:56.420Z,90.00
2019-02-20T10:14:25.762Z,90.20
2019-02-20T10:16:55.100Z,89.80
2019-02-20T10:19:24.437Z,89.60
2019-02-20T10:21:53.775Z,90.00
2019-02-20T10:24:23.135Z,89.50
2019-02-20T10:27:00.325Z,89.40
2019-02-20T10:29:23.629Z,88.10
2019-02-20T10:31:52.972Z,87.60
2019-02-20T10:34:22.316Z,87.60
2019-02-20T10:36:51.658Z,86.20
2019-02-20T10:39:20.997Z,85.70
2019-02-20T10:41:50.347Z,86.30
2019-02-20T10:44:19.691Z,85.70
2019-02-20T10:46:49.029Z,84.30
2019-02-20T10:49:18.366Z,84.80
2019-02-20T10:51:47.711Z,83.80
2019-02-20T10:54:17.064Z,82.70
2019-02-20T10:56:46.405Z,81.90
2019-02-20T10:59:15.746Z,83.20
2019-02-20T11:01:45.093Z,82.40
2019-02-20T11:04:14.448Z,81.80
2019-02-20T11:06:43.782Z,82.00
2019-02-20T11:09:13.292Z,80.30
2019-02-20T11:11:42.635Z,77.40
2019-02-20T11:14:11.980Z,77.10
2019-02-20T11:16:41.330Z,76.80
2019-02-20T11:19:10.687Z,76.30
2019-02-20T11:21:40.298Z,76.90
2019-02-20T11:24:09.637Z,77.60
2019-02-20T11:26:46.252Z,76.10
2019-02-20T11:29:10.058Z,76.00
2019-02-20T11:31:39.409Z,76.00
2019-02-20T11:34:08.757Z,74.20
2019-02-20T11:36:38.101Z,73.70
2019-02-20T11:39:07.842Z,74.80
2019-02-20T11:41:37.189Z,74.10
2019-02-20T11:44:06.526Z,74.30
2019-02-20T11:46:35.879Z,74.10
2019-02-20T11:49:05.224Z,74.00
2019-02-20T11:51:34.563Z,73.90
2019-02-20T11:54:03.901Z,74.30
2019-02-20T11:56:33.243Z,74.60
2019-02-20T11:59:02.593Z,74.80
2019-02-20T12:01:31.942Z,75.30
2019-02-20T12:04:01.296Z,74.40
2019-02-20T12:06:30.635Z,74.20
2019-02-20T12:08:59.975Z,74.20
2019-02-20T12:11:29.314Z,74.90
2019-02-20T12:13:58.659Z,75.40
2019-02-20T12:16:28.090Z,74.40
2019-02-20T12:18:57.434Z,74.70
2019-02-20T12:21:26.775Z,74.80
2019-02-20T12:23:56.136Z,74.80
2019-02-20T12:26:25.474Z,74.60
2019-02-20T12:28:54.822Z,74.80
2019-02-20T12:31:24.158Z,75.30
2019-02-20T12:33:53.498Z,75.10
2019-02-20T12:36:25.034Z,75.40
2019-02-20T12:38:54.446Z,75.50
2019-02-20T12:41:23.833Z,77.30
2019-02-20T12:43:53.122Z,75.90
2019-02-20T12:46:22.463Z,75.70
2019-02-20T12:48:51.808Z,76.30
2019-02-20T12:51:21.158Z,76.40
2019-02-20T12:53:50.496Z,76.00
2019-02-20T12:56:19.838Z,75.70
2019-02-20T12:58:49.174Z,75.50
2019-02-20T13:01:18.519Z,74.80
2019-02-20T13:03:47.855Z,75.50
2019-02-20T13:06:17.199Z,73.90
2019-02-20T13:08:46.719Z,74.20
2019-02-20T13:11:16.063Z,74.50
2019-02-20T13:13:45.400Z,74.60
2019-02-20T13:16:14.747Z,73.80
2019-02-20T13:18:44.081Z,73.60
2019-02-20T13:21:13.428Z,73.40
2019-02-20T13:23:42.765Z,73.40
2019-02-20T13:26:12.113Z,73.90
2019-02-20T13:28:41.472Z,72.90
2019-02-20T13:31:10.834Z,72.20
2019-02-20T13:33:40.173Z,72.60
2019-02-20T13:36:09.687Z,72.80
2019-02-20T13:38:39.032Z,73.20
2019-02-20T13:41:08.751Z,73.30
2019-02-20T13:43:38.089Z,72.40
2019-02-20T13:46:07.434Z,71.30
2019-02-20T13:48:36.771Z,71.00
2019-02-20T13:51:06.114Z,71.60
2019-02-20T13:53:35.531Z,71.50
2019-02-20T13:56:04.869Z,71.90
2019-02-20T13:58:34.215Z,71.70
2019-02-20T14:01:03.928Z,70.90
2019-02-20T14:03:33.269Z,70.80
2019-02-20T14:06:02.604Z,71.00
2019-02-20T14:08:31.947Z,71.40
2019-02-20T14:11:01.286Z,71.80
2019-02-20T14:13:30.908Z,72.00
2019-02-20T14:16:00.247Z,71.20
2019-02-20T14:18:29.594Z,70.80
2019-02-20T14:20:58.937Z,70.50
2019-02-20T14:23:29.721Z,70.00
2019-02-20T14:25:59.169Z,69.70
2019-02-20T14:28:28.903Z,69.40
2019-02-20T14:30:58.519Z,68.60
2019-02-20T14:33:27.855Z,68.60
2019-02-20T14:35:57.197Z,68.80
2019-02-20T14:38:26.550Z,68.40
2019-02-20T14:40:55.888Z,68.00
2019-02-20T14:43:25.502Z,67.80
2019-02-20T14:45:54.842Z,67.60
2019-02-20T14:48:24.177Z,67.70
2019-02-20T14:50:53.525Z,67.80
2019-02-20T14:53:22.862Z,67.80
2019-02-20T14:55:52.638Z,68.00
2019-02-20T14:58:22.352Z,68.00
2019-02-20T15:00:51.759Z,68.40
2019-02-20T15:03:21.096Z,68.70
2019-02-20T15:05:50.433Z,69.20
2019-02-20T15:08:20.049Z,68.40
2019-02-20T15:10:49.365Z,66.90
2019-02-20T15:13:18.702Z,65.80
2019-02-20T15:15:48.047Z,65.30
2019-02-20T15:18:17.396Z,65.50
2019-02-20T15:20:46.725Z,65.20
2019-02-20T15:23:16.071Z,65.90
2019-02-20T15:25:45.409Z,65.90
2019-02-20T15:28:14.744Z,65.30
2019-02-20T15:30:44.091Z,66.40
2019-02-20T15:33:13.439Z,67.10
2019-02-20T15:35:42.792Z,68.10
2019-02-20T15:38:12.194Z,67.40
2019-02-20T15:40:41.538Z,68.30
2019-02-20T15:43:10.878Z,69.00
2019-02-20T15:45:40.499Z,69.60
2019-02-20T15:48:09.841Z,69.80
2019-02-20T15:50:39.253Z,70.20
2019-02-20T15:53:08.586Z,71.40
2019-02-20T15:55:37.930Z,72.40
2019-02-20T15:58:07.266Z,71.50
2019-02-20T16:00:37.222Z,71.80
2019-02-20T16:03:06.726Z,72.40
2019-02-20T16:05:36.068Z,72.30
2019-02-20T16:08:07.204Z,72.40
2019-02-20T16:10:36.661Z,72.60
2019-02-20T16:13:06.005Z,72.40
2019-02-20T16:15:35.617Z,72.70
2019-02-20T16:18:04.969Z,72.60
2019-02-20T16:20:34.583Z,73.30
2019-02-20T16:23:03.919Z,73.40
2019-02-20T16:25:33.266Z,73.80
2019-02-20T16:28:02.599Z,74.60
2019-02-20T16:30:32.014Z,74.40
2019-02-20T16:33:01.361Z,75.10
2019-02-20T16:35:30.688Z,75.30
2019-02-20T16:38:00.030Z,75.50
2019-02-20T16:40:29.374Z,75.80
2019-02-20T16:42:58.708Z,76.10
2019-02-20T16:45:28.044Z,76.20
2019-02-20T16:47:57.557Z,76.60
2019-02-20T16:50:26.914Z,77.20
2019-02-20T16:52:56.288Z,77.50
2019-02-20T16:55:25.621Z,77.50
2019-02-20T16:57:57.042Z,77.80
2019-02-20T17:00:26.072Z,77.70
2019-02-20T17:02:55.655Z,77.50
2019-02-20T17:05:24.982Z,78.10
2019-02-20T17:07:54.324Z,77.40
2019-02-20T17:10:23.734Z,77.60
2019-02-20T17:12:53.076Z,77.60
2019-02-20T17:15:22.418Z,77.50
2019-02-20T17:17:53.083Z,78.10
2019-02-20T17:20:22.843Z,78.10
2019-02-20T17:22:52.435Z,78.20
2019-02-20T17:25:22.785Z,78.70
2019-02-20T17:27:52.127Z,78.10
2019-02-20T17:30:21.701Z,78.90
2019-02-20T17:32:51.220Z,79.40
2019-02-20T17:35:20.634Z,79.30
2019-02-20T17:37:49.973Z,79.50
2019-02-20T17:40:19.485Z,79.80
2019-02-20T17:42:48.821Z,79.90
2019-02-20T17:45:21.093Z,80.00
2019-02-20T17:47:50.448Z,80.10
2019-02-20T17:50:25.167Z,80.90
2019-02-20T17:52:54.578Z,80.90
2019-02-20T17:55:23.916Z,81.00
2019-02-20T17:57:53.585Z,81.40
2019-02-20T18:00:31.077Z,81.70
2019-02-20T18:03:00.424Z,82.30
2019-02-20T18:05:29.753Z,82.80
2019-02-20T18:07:59.096Z,82.80
2019-02-20T18:10:28.436Z,83.00
2019-02-20T18:12:57.784Z,82.80
2019-02-20T18:15:27.121Z,84.20
2019-02-20T18:17:56.469Z,83.90
2019-02-20T18:20:25.810Z,84.00
2019-02-20T18:22:55.161Z,84.30
2019-02-20T18:25:24.505Z,84.40
2019-02-20T18:27:53.845Z,84.40
2019-02-20T18:30:23.205Z,85.40
2019-02-20T18:32:52.549Z,85.10
2019-02-20T18:35:21.901Z,84.80
2019-02-20T18:37:51.236Z,84.80
2019-02-20T18:40:20.590Z,85.10
2019-02-20T18:42:49.924Z,85.00
2019-02-20T18:45:19.264Z,84.50
2019-02-20T18:47:48.678Z,84.90
2019-02-20T18:50:18.011Z,84.80
2019-02-20T18:52:47.345Z,85.00
2019-02-20T18:55:16.962Z,85.00
2019-02-20T18:57:46.293Z,85.40
2019-02-20T19:00:21.372Z,85.40
2019-02-20T19:02:50.709Z,85.50
2019-02-20T19:05:20.047Z,85.90
2019-02-20T19:07:49.403Z,85.90
2019-02-20T19:10:37.744Z,86.70
2019-02-20T19:13:20.300Z,86.80
2019-02-20T19:16:21.411Z,87.30
2019-02-20T19:19:06.986Z,87.80
2019-02-20T19:22:18.780Z,87.80
2019-02-20T19:24:55.267Z,88.10
2019-02-20T19:28:00.846Z,88.70
2019-02-20T19:31:11.694Z,88.90
2019-02-20T19:33:51.502Z,89.20
2019-02-20T19:36:31.189Z,89.50
2019-02-20T19:39:49.326Z,89.90
2019-02-20T19:42:45.602Z,90.10
2019-02-20T19:45:49.825Z,90.00
2019-02-20T19:48:41.602Z,90.30
2019-02-20T19:51:48.175Z,90.30
2019-02-20T19:54:27.587Z,90.60
2019-02-20T19:57:23.995Z,90.50
2019-02-20T20:00:33.680Z,90.60
2019-02-20T20:03:37.774Z,90.60
2019-02-20T20:06:26.470Z,90.60
2019-02-20T20:09:09.065Z,90.70
2019-02-20T20:12:31.851Z,90.70
2019-02-20T20:15:28.360Z,90.50
2019-02-20T20:18:14.076Z,90.60
2019-02-20T20:20:48.019Z,90.70
2019-02-20T20:23:49.153Z,90.50
2019-02-20T20:26:37.413Z,90.50
2019-02-20T20:29:36.780Z,90.50
2019-02-20T20:32:22.079Z,90.50
2019-02-20T20:35:35.508Z,90.30
2019-02-20T20:38:27.459Z,90.40
2019-02-20T20:41:20.773Z,90.20
2019-02-20T20:44:15.945Z,90.10
2019-02-20T20:47:04.705Z,90.10
2019-02-20T20:49:56.554Z,90.10
2019-02-20T20:52:56.280Z,90.10
2019-02-20T20:55:57.605Z,90.10
2019-02-20T20:59:01.340Z,90.00
2019-02-20T21:01:44.617Z,90.00
2019-02-20T21:04:36.280Z,89.60
2019-02-20T21:07:25.220Z,90.00
2019-02-20T21:10:13.393Z,90.00
2019-02-20T21:13:25.918Z,90.00
2019-02-20T21:16:08.494Z,89.80
2019-02-20T21:19:07.979Z,89.40
2019-02-20T21:22:13.128Z,90.00
2019-02-20T21:24:52.356Z,89.40
2019-02-20T21:27:44.152Z,89.30
2019-02-20T21:30:59.118Z,89.40
2019-02-20T21:34:12.019Z,89.60
2019-02-20T21:36:54.189Z,89.90
2019-02-20T21:39:46.297Z,90.10
2019-02-20T21:42:39.641Z,90.20
2019-02-20T21:45:24.742Z,90.20
2019-02-20T21:48:19.889Z,90.40
2019-02-20T21:51:02.898Z,90.40
2019-02-20T21:53:59.312Z,90.60
2019-02-20T21:56:38.896Z,90.60
2019-02-20T21:59:21.331Z,90.70
2019-02-20T22:02:07.033Z,90.80
2019-02-20T22:04:50.059Z,90.90
2019-02-20T22:07:38.949Z,90.90
2019-02-20T22:10:32.109Z,91.00
2019-02-20T22:13:30.049Z,91.20
2019-02-20T22:16:15.291Z,91.30
2019-02-20T22:19:01.022Z,91.50
2019-02-20T22:22:11.287Z,91.80
2019-02-20T22:24:53.303Z,91.90
2019-02-20T22:27:32.982Z,92.00
2019-02-20T22:30:46.681Z,92.30
2019-02-20T22:33:34.985Z,92.40
2019-02-20T22:36:37.403Z,92.50
2019-02-20T22:39:46.382Z,92.70
2019-02-20T22:42:29.236Z,92.80
2019-02-20T22:45:19.541Z,93.00
2019-02-20T22:48:09.821Z,93.40
2019-02-20T22:51:01.426Z,93.40
2019-02-20T22:53:41.001Z,93.70
2019-02-20T22:56:23.104Z,94.00
2019-02-20T22:59:02.795Z,94.10
2019-02-20T23:01:57.419Z,94.00
2019-02-20T23:04:31.365Z,94.40
2019-02-20T23:07:20.050Z,94.60
2019-02-20T23:10:06.041Z,94.80
2019-02-20T23:12:51.261Z,94.90
2019-02-20T23:15:20.598Z,95.10
2019-02-20T23:17:49.945Z,95.40
2019-02-20T23:20:19.281Z,95.50
2019-02-20T23:22:48.622Z,95.40
2019-02-20T23:25:17.964Z,95.60
2019-02-20T23:27:47.381Z,95.50
2019-02-20T23:30:16.718Z,95.80
2019-02-20T23:32:46.071Z,95.80
2019-02-20T23:35:15.411Z,95.90
2019-02-20T23:37:44.750Z,96.00
2019-02-20T23:40:14.093Z,96.00
2019-02-20T23:42:43.437Z,96.30
2019-02-20T23:45:12.800Z,96.00
2019-02-20T23:47:42.138Z,96.00
2019-02-20T23:50:11.482Z,96.10
2019-02-20T23:52:40.825Z,96.00
2019-02-20T23:55:10.179Z,96.10
2019-02-20T23:57:39.588Z,96.00
